createdAt,value
2023-03-13T00:01:15.578Z,13.18
2023-03-13T00:03:42.342Z,13.32
2023-03-13T00:06:09.123Z,12.43
2023-03-13T00:08:35.598Z,13.00
2023-03-13T00:11:06.882Z,14.15
2023-03-13T00:13:34.007Z,13.00
2023-03-13T00:16:06.274Z,13.77
2023-03-13T00:18:33.030Z,12.80
2023-03-13T00:21:09.902Z,13.60
2023-03-13T00:23:37.992Z,13.38
2023-03-13T00:26:13.612Z,13.07
2023-03-13T00:28:41.684Z,13.10
2023-03-13T00:31:12.314Z,13.48
2023-03-13T00:33:40.926Z,13.40
2023-03-13T00:36:30.698Z,14.13
2023-03-13T00:38:57.905Z,12.85
2023-03-13T00:41:27.142Z,13.48
2023-03-13T00:43:54.121Z,14.70
2023-03-13T00:46:23.692Z,13.95
2023-03-13T00:48:50.608Z,13.40
2023-03-13T00:51:19.613Z,14.93
2023-03-13T00:53:46.914Z,13.57
2023-03-13T00:56:15.425Z,14.68
2023-03-13T00:58:43.638Z,13.85
2023-03-13T01:01:19.235Z,13.70
2023-03-13T01:03:48.756Z,14.13
2023-03-13T01:06:17.668Z,14.13
2023-03-13T01:08:45.359Z,14.48
2023-03-13T01:11:15.181Z,13.63
2023-03-13T01:13:41.881Z,15.52
2023-03-13T01:16:14.279Z,13.77
2023-03-13T01:18:44.315Z,13.02
2023-03-13T01:21:11.677Z,13.40
2023-03-13T01:23:38.158Z,14.10
2023-03-13T01:26:06.273Z,13.07
2023-03-13T01:28:33.681Z,14.25
2023-03-13T01:31:01.363Z,12.48
2023-03-13T01:33:27.852Z,13.48
2023-03-13T01:36:01.801Z,11.73
2023-03-13T01:38:28.298Z,13.30
2023-03-13T01:40:55.198Z,12.30
2023-03-13T01:43:27.732Z,12.98
2023-03-13T01:46:18.403Z,11.52
2023-03-13T01:48:53.508Z,12.70
2023-03-13T01:51:25.916Z,12.70
2023-03-13T01:54:12.211Z,12.60
2023-03-13T01:57:07.697Z,11.38
2023-03-13T01:59:41.922Z,11.68
2023-03-13T02:02:09.148Z,11.02
2023-03-13T02:04:39.758Z,11.18
2023-03-13T02:07:20.280Z,10.63
2023-03-13T02:09:52.102Z,10.23
2023-03-13T02:12:26.274Z,11.15
2023-03-13T02:14:53.648Z,10.95
2023-03-13T02:17:20.321Z,10.18
2023-03-13T02:19:52.048Z,10.40
2023-03-13T02:22:28.895Z,9.52
2023-03-13T02:25:04.127Z,10.15
2023-03-13T02:27:30.724Z,10.00
2023-03-13T02:29:58.250Z,8.73
2023-03-13T02:32:26.814Z,8.90
2023-03-13T02:34:58.343Z,9.57
2023-03-13T02:37:28.618Z,9.88
2023-03-13T02:39:57.265Z,8.73
2023-03-13T02:42:24.692Z,9.02
2023-03-13T02:44:52.155Z,8.15
2023-03-13T02:47:24.504Z,8.32
2023-03-13T02:49:51.129Z,9.10
2023-03-13T02:52:26.188Z,8.23
2023-03-13T02:55:06.650Z,7.70
2023-03-13T02:57:33.987Z,7.30
2023-03-13T03:00:00.461Z,8.10
2023-03-13T03:02:26.922Z,7.47
2023-03-13T03:04:53.392Z,7.18
2023-03-13T03:07:19.797Z,7.93
2023-03-13T03:09:46.220Z,6.82
2023-03-13T03:12:12.699Z,6.97
2023-03-13T03:14:39.460Z,7.43
2023-03-13T03:17:06.001Z,7.10
2023-03-13T03:19:32.442Z,7.53
2023-03-13T03:21:58.874Z,7.70
2023-03-13T03:24:25.415Z,6.50
2023-03-13T03:26:51.846Z,6.88
2023-03-13T03:29:19.026Z,5.75
2023-03-13T03:31:45.573Z,7.68
2023-03-13T03:34:12.177Z,7.32
2023-03-13T03:36:39.917Z,7.25
2023-03-13T03:39:06.424Z,7.47
2023-03-13T03:41:32.917Z,6.70
2023-03-13T03:43:59.450Z,6.60
2023-03-13T03:46:25.966Z,6.97
2023-03-13T03:48:52.447Z,5.70
2023-03-13T03:51:18.888Z,7.28
2023-03-13T03:53:45.301Z,6.57
2023-03-13T03:56:11.798Z,6.57
2023-03-13T03:58:38.295Z,6.57
2023-03-13T04:01:05.125Z,6.05
2023-03-13T04:03:32.005Z,5.55
2023-03-13T04:05:58.485Z,7.10
2023-03-13T04:08:25.232Z,6.45
2023-03-13T04:10:52.192Z,6.43
2023-03-13T04:13:18.695Z,5.90
2023-03-13T04:15:45.409Z,6.00
2023-03-13T04:18:11.915Z,5.82
2023-03-13T04:20:38.353Z,5.72
2023-03-13T04:23:04.909Z,6.10
2023-03-13T04:25:31.490Z,6.30
2023-03-13T04:27:57.952Z,5.35
2023-03-13T04:30:24.396Z,6.20
2023-03-13T04:32:51.201Z,5.53
2023-03-13T04:35:17.794Z,5.57
2023-03-13T04:37:44.273Z,7.38
2023-03-13T04:40:12.641Z,6.03
2023-03-13T04:42:40.318Z,4.97
2023-03-13T04:45:08.063Z,5.72
2023-03-13T04:47:34.524Z,5.88
2023-03-13T04:50:00.922Z,5.25
2023-03-13T04:52:27.380Z,6.43
2023-03-13T04:54:53.856Z,5.18
2023-03-13T04:57:20.268Z,5.18
2023-03-13T04:59:46.848Z,6.15
2023-03-13T05:02:14.001Z,5.13
2023-03-13T05:04:40.567Z,6.03
2023-03-13T05:07:07.180Z,6.15
2023-03-13T05:09:33.641Z,7.13
2023-03-13T05:12:00.179Z,6.85
2023-03-13T05:14:26.701Z,5.47
2023-03-13T05:16:53.137Z,5.75
2023-03-13T05:19:19.700Z,6.60
2023-03-13T05:21:46.118Z,6.35
2023-03-13T05:24:12.571Z,6.07
2023-03-13T05:26:39.093Z,6.43
2023-03-13T05:29:05.544Z,6.32
2023-03-13T05:31:32.082Z,6.80
2023-03-13T05:33:58.616Z,6.63
2023-03-13T05:36:25.088Z,5.88
2023-03-13T05:38:51.700Z,5.50
2023-03-13T05:41:18.183Z,6.70
2023-03-13T05:43:44.636Z,7.25
2023-03-13T05:46:11.126Z,7.15
2023-03-13T05:48:37.650Z,6.15
2023-03-13T05:51:04.340Z,5.30
2023-03-13T05:53:30.776Z,5.95
2023-03-13T05:55:57.284Z,5.93
2023-03-13T05:58:23.989Z,6.57
2023-03-13T06:00:50.442Z,6.82
2023-03-13T06:03:17.117Z,6.80
2023-03-13T06:05:43.549Z,6.13
2023-03-13T06:08:10.062Z,6.68
2023-03-13T06:10:36.557Z,6.43
2023-03-13T06:13:13.905Z,6.50
2023-03-13T06:15:52.852Z,7.35
2023-03-13T06:18:19.327Z,6.22
2023-03-13T06:20:45.894Z,6.40
2023-03-13T06:23:12.395Z,7.55
2023-03-13T06:25:38.946Z,6.38
2023-03-13T06:28:05.383Z,6.10
2023-03-13T06:30:31.902Z,6.18
2023-03-13T06:32:58.871Z,6.60
2023-03-13T06:35:25.629Z,6.50
2023-03-13T06:37:52.151Z,6.90
2023-03-13T06:40:18.737Z,6.57
2023-03-13T06:42:45.148Z,8.38
2023-03-13T06:45:11.756Z,6.72
2023-03-13T06:47:38.233Z,7.88
2023-03-13T06:50:05.016Z,6.53
2023-03-13T06:52:43.016Z,6.57
2023-03-13T06:55:10.825Z,6.78
2023-03-13T06:57:37.435Z,7.00
2023-03-13T07:00:06.100Z,9.55
2023-03-13T07:02:32.745Z,7.85
2023-03-13T07:04:59.287Z,7.88
2023-03-13T07:07:31.718Z,6.28
2023-03-13T07:09:59.017Z,6.95
2023-03-13T07:12:25.605Z,7.65
2023-03-13T07:14:52.168Z,7.60
2023-03-13T07:17:18.706Z,6.72
2023-03-13T07:19:48.397Z,7.53
2023-03-13T07:22:15.026Z,7.55
2023-03-13T07:24:42.538Z,7.28
2023-03-13T07:27:09.413Z,6.55
2023-03-13T07:29:36.088Z,7.93
2023-03-13T07:32:02.801Z,6.68
2023-03-13T07:34:29.897Z,6.53
2023-03-13T07:36:56.638Z,7.25
2023-03-13T07:39:23.642Z,7.20
2023-03-13T07:41:50.569Z,7.20
2023-03-13T07:44:17.305Z,6.07
2023-03-13T07:46:44.316Z,7.68
2023-03-13T07:49:12.204Z,7.13
2023-03-13T07:51:43.829Z,7.35
2023-03-13T07:54:11.660Z,6.22
2023-03-13T07:56:38.772Z,7.45
2023-03-13T07:59:05.526Z,6.00
2023-03-13T08:01:39.954Z,5.82
2023-03-13T08:04:06.507Z,6.18
2023-03-13T08:06:35.780Z,6.05
2023-03-13T08:09:02.714Z,6.05
2023-03-13T08:11:29.957Z,6.53
2023-03-13T08:13:57.645Z,6.80
2023-03-13T08:16:27.278Z,6.63
2023-03-13T08:18:58.689Z,6.07
2023-03-13T08:21:30.369Z,5.78
2023-03-13T08:26:30.386Z,6.10
2023-03-13T08:28:59.442Z,6.70
2023-03-13T08:31:31.410Z,6.80
2023-03-13T08:33:58.476Z,6.80
2023-03-13T08:36:43.163Z,5.63
2023-03-13T08:39:13.982Z,7.53
2023-03-13T08:41:41.589Z,6.30
2023-03-13T08:44:11.344Z,7.50
2023-03-13T08:46:38.354Z,7.68
2023-03-13T08:49:07.271Z,6.30
2023-03-13T08:51:34.462Z,6.55
2023-03-13T08:54:02.353Z,6.07
2023-03-13T08:56:30.584Z,5.80
2023-03-13T08:58:59.906Z,6.15
2023-03-13T09:01:29.761Z,7.78
2023-03-13T09:03:57.857Z,5.50
2023-03-13T09:06:24.661Z,6.38
2023-03-13T09:08:51.178Z,7.25
2023-03-13T09:11:20.987Z,6.35
2023-03-13T09:13:50.497Z,5.82
2023-03-13T09:16:20.216Z,5.75
2023-03-13T09:18:47.159Z,4.82
2023-03-13T09:21:18.381Z,5.00
2023-03-13T09:23:45.323Z,5.45
2023-03-13T09:26:15.067Z,4.90
2023-03-13T09:28:45.910Z,4.93
2023-03-13T09:31:15.445Z,5.22
2023-03-13T09:33:43.413Z,5.03
2023-03-13T09:36:10.938Z,5.05
2023-03-13T09:38:38.316Z,4.97
2023-03-13T09:41:20.018Z,5.65
2023-03-13T09:46:48.381Z,4.40
2023-03-13T09:49:51.310Z,5.13
2023-03-13T09:52:49.913Z,5.75
2023-03-13T09:55:34.735Z,5.15
2023-03-13T09:58:13.594Z,4.35
2023-03-13T10:00:43.187Z,3.75
2023-03-13T10:03:26.396Z,3.90
2023-03-13T10:05:57.376Z,3.47
2023-03-13T10:08:26.548Z,3.58
2023-03-13T10:11:02.099Z,3.70
2023-03-13T10:13:56.883Z,3.40
2023-03-13T10:16:38.951Z,4.30
2023-03-13T10:19:14.441Z,3.97
2023-03-13T10:21:43.426Z,4.78
2023-03-13T10:24:34.927Z,3.88
2023-03-13T10:27:01.550Z,3.20
2023-03-13T10:29:30.669Z,3.63
2023-03-13T10:32:05.803Z,4.18
2023-03-13T10:34:52.644Z,3.95
2023-03-13T10:37:30.020Z,3.65
2023-03-13T10:40:23.197Z,4.43
2023-03-13T10:42:52.093Z,2.60
2023-03-13T10:45:25.256Z,3.00
2023-03-13T10:47:56.860Z,3.78
2023-03-13T10:50:26.543Z,3.17
2023-03-13T10:52:54.856Z,2.78
2023-03-13T10:55:24.512Z,3.00
2023-03-13T10:58:05.762Z,2.88
2023-03-13T11:00:42.576Z,2.85
2023-03-13T11:03:20.006Z,2.72
2023-03-13T11:05:58.556Z,2.97
2023-03-13T11:08:27.663Z,2.67
2023-03-13T11:10:57.630Z,2.40
2023-03-13T11:13:38.260Z,2.28
2023-03-13T11:16:19.456Z,2.13
2023-03-13T11:19:02.337Z,2.20
2023-03-13T11:21:39.470Z,2.10
2023-03-13T11:24:16.215Z,1.60
2023-03-13T11:27:04.275Z,2.05
2023-03-13T11:29:48.547Z,1.90
2023-03-13T11:32:24.696Z,1.77
2023-03-13T11:34:57.253Z,1.90
2023-03-13T11:37:26.824Z,1.85
2023-03-13T11:39:56.747Z,2.38
2023-03-13T11:42:39.496Z,1.50
2023-03-13T11:45:46.792Z,2.08
2023-03-13T11:48:25.640Z,1.65
2023-03-13T11:51:01.139Z,1.60
2023-03-13T11:53:40.856Z,1.55
2023-03-13T11:56:35.607Z,1.70
2023-03-13T11:59:07.867Z,1.73
2023-03-13T12:01:46.607Z,1.85
2023-03-13T12:04:29.042Z,1.70
2023-03-13T12:06:59.150Z,1.38
2023-03-13T12:09:28.580Z,1.42
2023-03-13T12:12:03.670Z,1.40
2023-03-13T12:14:53.064Z,1.13
2023-03-13T12:17:35.065Z,1.23
2023-03-13T12:20:24.092Z,1.17
2023-03-13T12:23:20.525Z,1.02
2023-03-13T12:26:04.838Z,1.02
2023-03-13T12:28:52.687Z,1.27
2023-03-13T12:31:28.898Z,0.85
2023-03-13T12:34:09.764Z,1.10
2023-03-13T12:36:42.892Z,1.03
2023-03-13T12:39:24.461Z,1.05
2023-03-13T12:42:12.018Z,1.00
2023-03-13T12:44:39.976Z,1.02
2023-03-13T12:47:34.227Z,2.85
2023-03-13T12:50:19.805Z,1.10
2023-03-13T12:52:46.223Z,0.77
2023-03-13T12:55:40.148Z,1.40
2023-03-13T12:58:22.939Z,1.08
2023-03-13T13:00:51.010Z,0.93
2023-03-13T13:03:35.713Z,0.85
2023-03-13T13:06:04.920Z,1.30
2023-03-13T13:08:36.170Z,1.13
2023-03-13T13:11:33.840Z,1.60
2023-03-13T13:14:25.893Z,1.25
2023-03-13T13:17:21.273Z,0.90
2023-03-13T13:19:48.038Z,1.20
2023-03-13T13:22:38.811Z,1.00
2023-03-13T13:25:11.693Z,1.48
2023-03-13T13:27:38.079Z,1.05
2023-03-13T13:30:27.652Z,1.10
2023-03-13T13:32:55.768Z,1.33
2023-03-13T13:35:30.216Z,1.00
2023-03-13T13:38:18.489Z,1.00
2023-03-13T13:41:14.376Z,2.00
2023-03-13T13:43:40.738Z,1.90
2023-03-13T13:46:31.421Z,1.10
2023-03-13T13:49:07.476Z,1.23
2023-03-13T13:51:38.602Z,1.42
2023-03-13T13:54:30.032Z,1.48
2023-03-13T13:56:59.190Z,1.27
2023-03-13T13:59:31.679Z,1.20
2023-03-13T14:02:04.150Z,1.30
2023-03-13T14:04:55.992Z,1.17
2023-03-13T14:07:37.203Z,0.98
2023-03-13T14:10:19.519Z,1.15
2023-03-13T14:12:57.905Z,1.38
2023-03-13T14:15:34.598Z,1.25
2023-03-13T14:18:16.302Z,1.20
2023-03-13T14:20:58.984Z,1.42
2023-03-13T14:23:31.120Z,1.60
2023-03-13T14:25:57.649Z,1.52
2023-03-13T14:28:27.540Z,1.40
2023-03-13T14:30:57.018Z,1.65
2023-03-13T14:33:26.762Z,1.42
2023-03-13T14:35:54.073Z,1.90
2023-03-13T14:38:26.309Z,1.45
2023-03-13T14:40:55.389Z,1.50
2023-03-13T14:43:24.922Z,1.42
2023-03-13T14:45:51.915Z,1.45
2023-03-13T14:48:32.394Z,1.58
2023-03-13T14:51:20.006Z,1.40
2023-03-13T14:54:00.814Z,1.70
2023-03-13T14:56:43.020Z,1.90
2023-03-13T14:59:24.271Z,1.50
2023-03-13T15:02:23.154Z,1.95
2023-03-13T15:04:59.833Z,1.27
2023-03-13T15:07:41.782Z,1.65
2023-03-13T15:10:26.819Z,1.35
2023-03-13T15:12:53.419Z,1.25
2023-03-13T15:15:20.057Z,1.58
2023-03-13T15:17:46.649Z,1.88
2023-03-13T15:20:14.569Z,1.40
2023-03-13T15:22:44.270Z,1.13
2023-03-13T15:25:23.149Z,1.30
2023-03-13T15:27:50.583Z,1.10
2023-03-13T15:30:19.630Z,1.10
2023-03-13T15:32:47.022Z,1.20
2023-03-13T15:35:22.036Z,1.10
2023-03-13T15:37:48.518Z,1.20
2023-03-13T15:40:16.817Z,1.13
2023-03-13T15:42:43.399Z,1.13
2023-03-13T15:45:10.224Z,1.67
2023-03-13T15:47:36.727Z,1.38
2023-03-13T15:50:04.403Z,1.40
2023-03-13T15:52:31.486Z,1.60
2023-03-13T15:54:57.922Z,1.40
2023-03-13T15:57:26.258Z,1.30
2023-03-13T15:59:54.126Z,1.35
2023-03-13T16:02:23.181Z,1.33
2023-03-13T16:04:50.964Z,1.55
2023-03-13T16:07:21.552Z,1.80
2023-03-13T16:09:49.003Z,1.73
2023-03-13T16:12:15.428Z,2.08
2023-03-13T16:14:42.230Z,1.30
2023-03-13T16:17:17.170Z,2.00
2023-03-13T16:19:44.919Z,1.70
2023-03-13T16:22:12.045Z,1.67
2023-03-13T16:24:39.454Z,1.75
2023-03-13T16:27:13.869Z,1.95
2023-03-13T16:29:40.490Z,1.80
2023-03-13T16:32:06.973Z,1.52
2023-03-13T16:34:33.434Z,1.38
2023-03-13T16:36:59.946Z,1.73
2023-03-13T16:39:26.622Z,1.95
2023-03-13T16:41:53.161Z,2.15
2023-03-13T16:44:19.656Z,2.05
2023-03-13T16:46:59.215Z,1.90
2023-03-13T16:49:31.105Z,1.70
2023-03-13T16:51:57.554Z,1.88
2023-03-13T16:54:24.010Z,1.83
2023-03-13T16:56:50.536Z,1.88
2023-03-13T16:59:18.173Z,2.05
2023-03-13T17:01:46.972Z,1.92
2023-03-13T17:04:13.891Z,1.52
2023-03-13T17:06:42.607Z,1.70
2023-03-13T17:09:15.572Z,1.90
2023-03-13T17:11:42.623Z,2.90
2023-03-13T17:14:09.414Z,1.52
2023-03-13T17:16:39.604Z,2.22
2023-03-13T17:19:08.943Z,1.95
2023-03-13T17:21:36.678Z,1.77
2023-03-13T17:24:03.371Z,1.92
2023-03-13T17:26:33.554Z,1.55
2023-03-13T17:29:00.525Z,1.77
2023-03-13T17:31:28.334Z,1.90
2023-03-13T17:33:54.929Z,2.00
2023-03-13T17:36:27.242Z,1.48
2023-03-13T17:38:59.264Z,1.92
2023-03-13T17:41:28.239Z,1.73
2023-03-13T17:43:55.208Z,1.70
2023-03-13T17:46:30.831Z,1.60
2023-03-13T17:48:57.333Z,1.58
2023-03-13T17:51:26.770Z,1.60
2023-03-13T17:53:55.015Z,1.52
2023-03-13T17:56:27.172Z,1.85
2023-03-13T17:58:57.693Z,1.80
2023-03-13T18:01:26.452Z,1.60
2023-03-13T18:03:53.003Z,1.88
2023-03-13T18:06:29.458Z,3.17
2023-03-13T18:08:58.240Z,2.17
2023-03-13T18:11:26.436Z,2.00
2023-03-13T18:13:53.228Z,1.92
2023-03-13T18:16:24.711Z,1.80
2023-03-13T18:18:52.137Z,2.00
2023-03-13T18:21:20.195Z,2.00
2023-03-13T18:23:46.676Z,1.73
2023-03-13T18:26:25.263Z,1.88
2023-03-13T18:28:52.564Z,1.45
2023-03-13T18:31:19.178Z,1.88
2023-03-13T18:33:47.660Z,1.83
2023-03-13T18:36:19.564Z,1.63
2023-03-13T18:38:47.732Z,1.85
2023-03-13T18:41:15.538Z,1.50
2023-03-13T18:43:43.438Z,1.60
2023-03-13T18:46:26.589Z,1.73
2023-03-13T18:48:53.725Z,1.83
2023-03-13T18:51:24.210Z,1.83
2023-03-13T18:53:52.202Z,1.73
2023-03-13T18:56:28.024Z,1.65
2023-03-13T18:58:55.839Z,1.85
2023-03-13T19:01:25.094Z,1.83
2023-03-13T19:03:52.156Z,2.00
2023-03-13T19:06:33.871Z,2.00
2023-03-13T19:09:42.207Z,1.50
2023-03-13T19:12:08.350Z,2.08
2023-03-13T19:14:34.883Z,1.95
2023-03-13T19:17:01.653Z,2.30
2023-03-13T19:19:28.741Z,2.00
2023-03-13T19:21:56.273Z,2.30
2023-03-13T19:24:26.451Z,1.80
2023-03-13T19:26:58.340Z,2.00
2023-03-13T19:29:27.788Z,1.83
2023-03-13T19:31:54.877Z,1.50
2023-03-13T19:34:21.997Z,2.15
2023-03-13T19:36:49.361Z,2.38
2023-03-13T19:39:24.084Z,2.03
2023-03-13T19:41:51.617Z,2.08
2023-03-13T19:44:19.949Z,2.15
2023-03-13T19:46:46.836Z,1.90
2023-03-13T19:49:16.082Z,2.22
2023-03-13T19:51:42.980Z,2.08
2023-03-13T19:54:10.778Z,2.33
2023-03-13T19:56:39.331Z,2.22
2023-03-13T19:59:24.245Z,2.53
2023-03-13T20:01:50.837Z,2.90
2023-03-13T20:04:17.453Z,2.80
2023-03-13T20:06:45.381Z,2.85
2023-03-13T20:09:17.375Z,3.38
2023-03-13T20:11:44.575Z,2.80
2023-03-13T20:14:11.391Z,2.72
2023-03-13T20:16:38.628Z,2.47
2023-03-13T20:19:05.280Z,2.45
2023-03-13T20:21:34.665Z,2.55
2023-03-13T20:24:01.469Z,2.47
2023-03-13T20:26:29.301Z,2.80
2023-03-13T20:28:56.945Z,2.55
2023-03-13T20:31:26.270Z,2.78
2023-03-13T20:33:52.769Z,2.40
2023-03-13T20:36:20.709Z,2.88
2023-03-13T20:38:47.607Z,2.38
2023-03-13T20:41:16.121Z,2.60
2023-03-13T20:43:42.908Z,2.72
2023-03-13T20:46:09.642Z,2.90
2023-03-13T20:48:39.142Z,2.90
2023-03-13T20:51:07.547Z,2.75
2023-03-13T20:53:38.909Z,3.50
2023-03-13T20:56:07.271Z,2.83
2023-03-13T20:58:37.636Z,2.42
2023-03-13T21:01:06.336Z,3.17
2023-03-13T21:03:35.361Z,2.70
2023-03-13T21:06:11.961Z,2.83
2023-03-13T21:08:39.023Z,2.78
2023-03-13T21:11:15.585Z,2.67
2023-03-13T21:13:42.072Z,2.15
2023-03-13T21:16:08.836Z,2.40
2023-03-13T21:18:35.441Z,2.25
2023-03-13T21:21:07.044Z,2.00
2023-03-13T21:26:00.601Z,1.83
2023-03-13T21:28:28.026Z,2.00
2023-03-13T21:30:55.207Z,2.00
2023-03-13T21:33:21.968Z,1.52
2023-03-13T21:35:49.734Z,1.73
2023-03-13T21:38:16.695Z,1.58
2023-03-13T21:40:43.323Z,1.70
2023-03-13T21:43:09.824Z,1.92
2023-03-13T21:45:36.539Z,1.80
2023-03-13T21:48:03.090Z,1.35
2023-03-13T21:50:29.628Z,1.60
2023-03-13T21:52:56.032Z,1.83
2023-03-13T21:55:22.475Z,1.55
2023-03-13T21:57:48.990Z,1.65
2023-03-13T22:00:15.991Z,1.42
2023-03-13T22:02:44.196Z,1.35
2023-03-13T22:05:10.889Z,1.23
2023-03-13T22:07:37.319Z,1.27
2023-03-13T22:10:04.567Z,1.25
2023-03-13T22:12:31.045Z,1.10
2023-03-13T22:14:57.915Z,1.15
2023-03-13T22:17:24.706Z,1.20
2023-03-13T22:19:51.220Z,1.20
2023-03-13T22:22:19.904Z,1.45
2023-03-13T22:24:46.645Z,1.05
2023-03-13T22:27:13.551Z,0.85
2023-03-13T22:29:40.029Z,1.17
2023-03-13T22:32:06.588Z,0.90
2023-03-13T22:34:33.127Z,1.10
2023-03-13T22:36:59.603Z,1.40
2023-03-13T22:39:26.090Z,0.98
2023-03-13T22:41:52.679Z,1.25
2023-03-13T22:44:19.403Z,1.02
2023-03-13T22:46:45.839Z,1.05
2023-03-13T22:49:12.298Z,1.20
2023-03-13T22:51:38.756Z,1.10
2023-03-13T22:54:05.323Z,1.45
2023-03-13T22:56:31.956Z,1.40
2023-03-13T22:58:58.456Z,1.70
2023-03-13T23:01:26.452Z,1.00
2023-03-13T23:03:52.977Z,1.30
2023-03-13T23:06:23.007Z,1.27
2023-03-13T23:08:50.512Z,1.40
2023-03-13T23:11:18.207Z,1.20
2023-03-13T23:13:44.911Z,1.20
2023-03-13T23:16:12.836Z,1.00
2023-03-13T23:18:40.199Z,1.02
2023-03-13T23:21:12.814Z,1.27
2023-03-13T23:23:39.909Z,1.02
2023-03-13T23:26:09.079Z,0.80
2023-03-13T23:28:36.953Z,1.20
2023-03-13T23:31:15.862Z,1.02
2023-03-13T23:33:43.310Z,1.10
2023-03-13T23:36:13.180Z,1.00
2023-03-13T23:38:40.409Z,0.70
2023-03-13T23:41:08.998Z,1.00
2023-03-13T23:43:35.811Z,1.10
2023-03-13T23:46:02.357Z,0.80
2023-03-13T23:48:28.919Z,0.73
2023-03-13T23:50:55.373Z,1.30
2023-03-13T23:53:22.144Z,1.00
2023-03-13T23:55:57.278Z,1.10
2023-03-13T23:58:23.901Z,0.93
